Time;durP1;ratioP1;P1;durP2;ratioP2;P2;SDS_P1;SDS_P2;PMS_P1;PMS_P2;Temp;Humidity;BMP_temperature;BMP_pressure;BME280_temperature;BME280_humidity;BME280_pressure;Samples;Min_cycle;Max_cycle;Signal;HPM_P1;HPM_P2
2022/10/14 00:01:02;;;;;;;12.10;6.30;;;;;;;11.64;89.87;101643.72;5015785;28;96586;-30
2022/10/14 00:03:28;;;;;;;15.30;5.80;;;;;;;11.62;89.63;101642.94;5015877;28;96904;-30
2022/10/14 00:05:53;;;;;;;14.70;5.90;;;;;;;11.62;89.59;101643.81;5016639;28;98679;-30
2022/10/14 00:08:18;;;;;;;12.25;6.18;;;;;;;11.67;89.22;101647.16;5016895;28;106483;-31
2022/10/14 00:10:43;;;;;;;14.95;7.25;;;;;;;11.69;90.10;101631.66;5016888;28;104372;-30
2022/10/14 00:13:09;;;;;;;14.40;6.70;;;;;;;11.74;90.21;101631.41;5016985;28;97303;-32
2022/10/14 00:15:39;;;;;;;17.55;7.60;;;;;;;11.73;90.36;101626.06;5015764;28;103754;-31
2022/10/14 00:18:05;;;;;;;21.13;6.72;;;;;;;11.74;90.49;101620.56;5015233;28;101291;-31
2022/10/14 00:20:31;;;;;;;14.98;6.85;;;;;;;11.78;90.69;101614.00;5016916;28;96470;-30
2022/10/14 00:22:56;;;;;;;17.85;7.88;;;;;;;11.78;90.47;101611.31;5016849;28;96746;-31
2022/10/14 00:25:21;;;;;;;12.82;6.30;;;;;;;11.81;90.31;101605.69;5016114;28;115649;-30
2022/10/14 00:27:46;;;;;;;15.23;6.50;;;;;;;11.80;90.38;101590.38;5016334;28;111618;-31
2022/10/14 00:30:12;;;;;;;15.45;7.20;;;;;;;11.83;90.15;101592.91;5016435;28;99834;-31
2022/10/14 00:32:37;;;;;;;15.75;7.47;;;;;;;11.84;89.88;101586.50;5016794;28;102053;-31
2022/10/14 00:35:03;;;;;;;17.10;7.72;;;;;;;11.85;90.17;101582.00;5015756;28;120504;-30
2022/10/14 00:37:28;;;;;;;16.27;7.93;;;;;;;11.87;90.31;101575.53;5016200;28;99291;-31
2022/10/14 00:39:53;;;;;;;15.15;7.43;;;;;;;11.89;90.74;101573.63;5015547;28;107623;-31
2022/10/14 00:42:18;;;;;;;16.08;8.13;;;;;;;11.88;90.71;101560.13;5016352;28;99105;-31
2022/10/14 00:44:44;;;;;;;17.67;8.25;;;;;;;11.90;90.30;101561.78;5016197;28;108161;-31
2022/10/14 00:47:09;;;;;;;22.63;8.45;;;;;;;11.91;90.86;101554.50;5015715;28;99045;-32
2022/10/14 00:49:39;;;;;;;18.30;8.35;;;;;;;11.93;90.97;101559.88;5016611;28;96640;-31
2022/10/14 00:52:10;;;;;;;15.48;7.18;;;;;;;11.94;91.36;101564.31;5015113;28;96829;-31
2022/10/14 00:54:40;;;;;;;18.63;8.30;;;;;;;11.96;91.43;101559.69;5014850;28;100869;-31
2022/10/14 00:57:07;;;;;;;16.75;7.97;;;;;;;11.94;90.84;101550.75;5015272;28;100480;-31
2022/10/14 00:59:33;;;;;;;20.55;7.55;;;;;;;11.98;90.86;101557.78;4998387;28;96648;-31
2022/10/14 01:01:58;;;;;;;22.23;9.07;;;;;;;11.99;90.75;101554.06;5014130;28;96784;-31
2022/10/14 01:04:25;;;;;;;21.80;8.88;;;;;;;11.98;91.35;101541.47;5015392;28;97463;-31
2022/10/14 01:07:11;;;;;;;23.42;8.95;;;;;;;11.99;90.99;101549.56;5014501;28;101385;-31
2022/10/14 01:10:06;;;;;;;23.85;8.85;;;;;;;12.04;91.06;101560.16;5014810;28;96518;-31
2022/10/14 01:12:55;;;;;;;20.33;8.90;;;;;;;12.07;92.02;101559.97;5014828;28;96815;-32
2022/10/14 01:15:46;;;;;;;21.38;9.30;;;;;;;12.08;92.25;101556.28;5015933;28;97997;-30
2022/10/14 01:18:33;;;;;;;21.83;9.52;;;;;;;12.12;92.57;101563.28;5014963;28;97284;-31
2022/10/14 01:21:05;;;;;;;23.05;9.88;;;;;;;12.11;91.94;101557.00;5016101;28;96687;-32
2022/10/14 01:23:37;;;;;;;24.38;10.00;;;;;;;12.15;92.06;101554.97;5014993;28;96706;-31
2022/10/14 01:26:36;;;;;;;28.70;10.60;;;;;;;12.18;92.23;101543.94;5014169;28;101035;-30
2022/10/14 01:29:20;;;;;;;34.10;10.80;;;;;;;12.20;92.16;101552.84;5015926;28;97427;-32
2022/10/14 01:31:55;;;;;;;31.98;11.80;;;;;;;12.21;92.56;101541.06;5013974;28;96548;-31
2022/10/14 01:34:29;;;;;;;33.20;11.45;;;;;;;12.22;92.42;101542.78;5014361;28;96844;-31
2022/10/14 01:37:00;;;;;;;25.92;11.13;;;;;;;12.25;92.28;101553.50;5014093;28;100871;-31
2022/10/14 01:39:31;;;;;;;27.73;10.85;;;;;;;12.25;92.12;101539.91;5014112;28;100726;-30
2022/10/14 01:42:32;;;;;;;27.50;10.90;;;;;;;12.30;92.03;101553.25;5015765;28;96790;-31
2022/10/14 01:45:05;;;;;;;36.75;11.73;;;;;;;12.30;92.15;101543.25;4971449;28;96982;-32
2022/10/14 01:47:33;;;;;;;29.55;11.63;;;;;;;12.32;92.01;101544.03;5013900;28;102107;-31
2022/10/14 01:50:08;;;;;;;32.42;10.98;;;;;;;12.31;92.91;101528.69;5014131;28;101606;-31
2022/10/14 01:52:40;;;;;;;30.55;11.38;;;;;;;12.33;92.81;101529.47;5015405;28;96600;-31
2022/10/14 01:55:10;;;;;;;31.58;12.18;;;;;;;12.36;92.59;101527.53;5014203;28;96790;-30
2022/10/14 01:57:39;;;;;;;29.48;11.35;;;;;;;12.38;92.95;101528.34;5013081;28;104316;-30
2022/10/14 02:00:05;;;;;;;43.13;11.57;;;;;;;12.40;93.21;101526.41;5013732;28;100935;-31
2022/10/14 02:02:36;;;;;;;33.95;12.65;;;;;;;12.40;93.18;101523.69;5013912;28;96499;-31
2022/10/14 02:05:05;;;;;;;28.88;10.65;;;;;;;12.41;93.42;101514.56;5013725;28;96857;-31
2022/10/14 02:07:39;;;;;;;36.97;13.27;;;;;;;12.41;92.89;101511.84;5013384;28;102157;-31
2022/10/14 02:10:36;;;;;;;35.58;12.30;;;;;;;12.44;93.06;101517.09;5013553;28;101117;-31
2022/10/14 02:13:33;;;;;;;32.22;11.85;;;;;;;12.45;92.61;101517.00;5013299;28;96617;-30
2022/10/14 02:16:15;;;;;;;31.48;11.95;;;;;;;12.47;92.79;101512.38;5014950;28;96809;-30
2022/10/14 02:18:47;;;;;;;;;;;;;;;12.46;92.94;101516.03;5015425;28;97987;-32
2022/10/14 02:21:23;;;;;;;25.27;9.85;;;;;;;12.46;92.85;101509.72;5013565;28;98282;-31
2022/10/14 02:23:59;;;;;;;32.72;12.48;;;;;;;12.47;92.85;101514.22;5014399;28;96593;-31
2022/10/14 02:26:25;;;;;;;35.70;11.27;;;;;;;12.48;93.02;101507.81;5015302;28;96446;-30
2022/10/14 02:28:52;;;;;;;39.70;12.77;;;;;;;12.49;93.12;101504.13;5013308;28;101166;-30
2022/10/14 02:31:19;;;;;;;35.47;11.73;;;;;;;12.50;92.96;101501.31;5013177;28;100799;-31
2022/10/14 02:33:50;;;;;;;33.97;11.95;;;;;;;12.49;93.21;101490.56;5013393;28;96619;-30
2022/10/14 02:36:18;;;;;;;31.52;11.27;;;;;;;12.48;93.57;101491.50;5013463;28;97921;-31
2022/10/14 02:38:46;;;;;;;35.20;12.18;;;;;;;12.52;93.59;101488.50;5013183;28;101114;-31
2022/10/14 02:41:14;;;;;;;32.95;11.55;;;;;;;12.56;93.14;101488.31;5013515;28;100678;-30
2022/10/14 02:43:40;;;;;;;32.53;11.55;;;;;;;12.55;92.84;101482.00;5013109;28;96757;-30
2022/10/14 02:46:05;;;;;;;33.90;11.50;;;;;;;12.58;92.95;101476.38;5014138;28;96827;-30
2022/10/14 02:48:31;;;;;;;30.40;11.02;;;;;;;12.58;93.00;101475.53;5013557;28;99318;-31
2022/10/14 02:50:56;;;;;;;31.60;11.45;;;;;;;12.59;93.94;101475.44;5014607;28;97788;-31
2022/10/14 02:53:21;;;;;;;43.05;13.05;;;;;;;12.60;93.59;101468.16;5014221;28;98568;-32
2022/10/14 02:55:47;;;;;;;38.08;13.23;;;;;;;12.58;93.86;101460.09;5014897;28;96790;-31
2022/10/14 02:58:12;;;;;;;39.50;12.55;;;;;;;12.62;93.30;101463.50;5014110;28;99226;-32
2022/10/14 03:00:38;;;;;;;35.13;11.13;;;;;;;12.62;93.90;101461.66;5014063;28;99001;-30
2022/10/14 03:03:03;;;;;;;40.30;11.70;;;;;;;12.61;94.37;101456.31;5014019;28;107022;-31
2022/10/14 03:05:28;;;;;;;45.20;13.60;;;;;;;12.62;94.06;101449.91;5015171;28;96864;-31
2022/10/14 03:07:54;;;;;;;32.22;11.85;;;;;;;12.63;94.27;101451.66;5014385;28;106063;-31
2022/10/14 03:10:19;;;;;;;36.97;12.50;;;;;;;12.66;94.13;101448.78;5014350;28;97809;-31
2022/10/14 03:12:45;;;;;;;32.08;11.40;;;;;;;12.67;93.33;101443.22;5013952;28;96485;-31
2022/10/14 03:15:10;;;;;;;39.72;12.43;;;;;;;12.65;93.49;101439.72;5014195;28;96744;-31
2022/10/14 03:17:36;;;;;;;33.90;11.13;;;;;;;12.68;93.58;101441.38;5012554;28;100905;-30
2022/10/14 03:20:03;;;;;;;32.17;11.55;;;;;;;12.65;93.49;101423.41;5013115;28;97318;-30
2022/10/14 03:22:29;;;;;;;39.78;12.93;;;;;;;12.67;93.85;101426.91;5012807;28;96736;-31
2022/10/14 03:24:54;;;;;;;30.23;11.25;;;;;;;12.70;93.46;101424.03;5014694;28;96800;-33
2022/10/14 03:27:19;;;;;;;32.90;12.13;;;;;;;12.69;93.35;101424.97;5017202;28;98841;-30
2022/10/14 03:29:45;;;;;;;33.17;11.00;;;;;;;12.71;93.53;101417.59;5018059;28;97827;-30
2022/10/14 03:32:10;;;;;;;36.05;11.60;;;;;;;12.71;93.63;101420.31;5017137;28;104516;-30
2022/10/14 03:34:35;;;;;;;36.25;11.02;;;;;;;12.72;93.57;101423.91;5017324;28;97157;-31
2022/10/14 03:37:01;;;;;;;31.65;9.07;;;;;;;12.72;93.85;101427.50;5016039;28;121685;-30
2022/10/14 03:39:26;;;;;;;35.25;11.32;;;;;;;12.73;94.08;101414.81;5017231;28;100302;-31
2022/10/14 03:41:52;;;;;;;34.95;11.10;;;;;;;12.74;94.20;101411.09;5017372;28;96598;-30
2022/10/14 03:44:17;;;;;;;34.40;10.45;;;;;;;12.75;94.49;101407.41;5016958;28;98382;-30
2022/10/14 03:46:42;;;;;;;36.45;10.93;;;;;;;12.75;93.84;101402.88;5016349;28;104320;-31
2022/10/14 03:49:07;;;;;;;36.35;11.98;;;;;;;12.75;94.04;101402.88;5016904;28;104253;-31
2022/10/14 03:51:33;;;;;;;34.95;11.63;;;;;;;12.74;93.86;101401.09;5017007;28;98548;-30
2022/10/14 03:53:58;;;;;;;33.63;11.07;;;;;;;12.78;93.84;101395.50;5017990;28;96576;-30
2022/10/14 03:56:24;;;;;;;39.22;10.80;;;;;;;12.77;94.00;101389.16;5016989;28;99213;-30
2022/10/14 03:58:49;;;;;;;29.38;10.65;;;;;;;12.80;93.80;101405.31;5016829;28;98774;-30
2022/10/14 04:01:14;;;;;;;34.63;9.18;;;;;;;12.79;94.00;101389.06;5016473;28;98718;-32
2022/10/14 04:03:40;;;;;;;31.55;11.05;;;;;;;12.79;94.23;101389.06;5016989;28;101578;-31
2022/10/14 04:06:06;;;;;;;39.20;11.02;;;;;;;12.81;94.16;101387.16;5015338;28;101127;-31
2022/10/14 04:08:31;;;;;;;28.75;9.98;;;;;;;12.79;94.46;101380.91;5017061;28;97838;-30
2022/10/14 04:10:57;;;;;;;35.95;9.55;;;;;;;12.83;94.50;101388.78;5017292;28;96758;-31
2022/10/14 04:13:23;;;;;;;30.27;10.90;;;;;;;12.85;94.40;101377.84;5017132;28;96857;-31
2022/10/14 04:15:48;;;;;;;27.63;9.70;;;;;;;12.82;94.63;101375.28;5015075;28;100947;-30
2022/10/14 04:18:14;;;;;;;31.20;11.35;;;;;;;12.84;94.53;101373.34;5016990;28;97885;-31
2022/10/14 04:20:40;;;;;;;25.67;9.75;;;;;;;12.84;94.59;101387.81;5016884;28;96631;-30
2022/10/14 04:23:06;;;;;;;25.98;9.35;;;;;;;12.84;94.42;101376.06;5015624;28;96872;-30
2022/10/14 04:25:31;;;;;;;31.20;10.45;;;;;;;12.83;95.04;101375.19;5015974;28;99815;-30
2022/10/14 04:27:56;;;;;;;29.67;9.68;;;;;;;12.87;95.05;101373.16;5016363;28;98782;-31
2022/10/14 04:30:22;;;;;;;26.20;9.60;;;;;;;12.87;94.84;101362.28;5016818;28;96589;-30
2022/10/14 04:32:47;;;;;;;27.20;9.02;;;;;;;12.87;95.02;101367.72;5016023;28;109261;-31
2022/10/14 04:35:12;;;;;;;34.70;10.20;;;;;;;12.89;94.89;101363.91;5016500;28;97885;-31
2022/10/14 04:37:38;;;;;;;27.38;9.10;;;;;;;12.90;94.83;101362.09;5015141;28;99120;-30
2022/10/14 04:40:04;;;;;;;26.08;9.18;;;;;;;12.89;95.02;101357.63;5016541;28;96474;-31
2022/10/14 04:42:29;;;;;;;22.83;8.65;;;;;;;12.91;94.74;101363.84;5015655;28;96858;-31
2022/10/14 04:44:55;;;;;;;26.83;9.75;;;;;;;12.91;95.02;101355.69;5016337;28;101182;-32
2022/10/14 04:47:20;;;;;;;31.40;10.13;;;;;;;12.91;94.51;101344.81;5015470;28;102170;-31
2022/10/14 04:49:45;;;;;;;22.27;8.65;;;;;;;12.93;94.68;101345.59;5015546;28;103725;-30
2022/10/14 04:52:10;;;;;;;23.55;9.05;;;;;;;12.91;95.03;101337.50;5015912;28;110882;-31
2022/10/14 04:54:36;;;;;;;23.85;8.25;;;;;;;12.93;95.29;101341.00;5015753;28;115455;-30
2022/10/14 04:57:01;;;;;;;22.88;7.97;;;;;;;12.92;95.17;101333.84;5016276;28;97308;-30
2022/10/14 04:59:26;;;;;;;23.42;8.52;;;;;;;12.92;95.56;101335.69;5016326;28;96561;-30
2022/10/14 05:01:52;;;;;;;18.20;7.13;;;;;;;12.94;95.72;101331.91;5015983;28;101911;-31
2022/10/14 05:04:17;;;;;;;18.75;6.72;;;;;;;12.92;96.39;101322.97;5015008;28;125579;-30
2022/10/14 05:06:43;;;;;;;21.50;7.30;;;;;;;12.94;95.62;101321.03;5016448;28;97763;-30
2022/10/14 05:09:08;;;;;;;16.50;6.63;;;;;;;12.94;95.45;101317.41;5016102;28;96471;-30
2022/10/14 05:11:33;;;;;;;19.02;7.60;;;;;;;12.94;95.47;101306.53;5015752;28;106076;-31
2022/10/14 05:13:59;;;;;;;22.70;7.63;;;;;;;12.94;95.93;101310.16;5015147;28;99363;-31
2022/10/14 05:16:25;;;;;;;23.52;7.80;;;;;;;12.94;95.98;101315.59;5015584;28;97874;-30
2022/10/14 05:18:51;;;;;;;17.73;6.75;;;;;;;12.95;96.17;101302.84;5015872;28;96580;-31
2022/10/14 05:21:16;;;;;;;24.65;7.30;;;;;;;12.94;96.86;101306.53;5016622;28;96729;-30
2022/10/14 05:23:41;;;;;;;22.02;6.88;;;;;;;12.93;97.72;101302.06;5015906;28;98002;-30
2022/10/14 05:26:09;;;;;;;17.52;6.60;;;;;;;12.97;96.50;101303.63;5015588;28;99490;-30
2022/10/14 05:28:35;;;;;;;23.08;7.50;;;;;;;12.97;97.02;101292.75;5014579;28;96652;-30
2022/10/14 05:31:00;;;;;;;16.70;6.65;;;;;;;12.99;97.01;101295.34;5014795;28;96580;-32
2022/10/14 05:33:25;;;;;;;20.10;6.57;;;;;;;12.99;97.89;101295.34;5014849;28;113471;-31
2022/10/14 05:35:51;;;;;;;16.48;6.57;;;;;;;13.02;97.49;101293.31;5014524;28;121115;-31
2022/10/14 05:38:16;;;;;;;18.20;7.05;;;;;;;13.00;97.08;101289.84;5015431;28;96494;-30
2022/10/14 05:40:42;;;;;;;21.73;7.35;;;;;;;13.03;97.70;101288.75;5015658;28;97536;-31
2022/10/14 05:43:07;;;;;;;21.83;7.07;;;;;;;13.02;97.16;101289.75;5015247;28;97977;-31
2022/10/14 05:45:33;;;;;;;18.13;6.32;;;;;;;13.03;97.67;101281.47;5014641;28;106385;-30
2022/10/14 05:47:58;;;;;;;17.70;6.60;;;;;;;13.05;97.72;101287.69;5014617;28;107173;-33
2022/10/14 05:50:23;;;;;;;18.50;6.30;;;;;;;13.05;97.55;101284.97;5015212;28;102839;-30
2022/10/14 05:52:49;;;;;;;15.77;6.25;;;;;;;13.07;97.75;101284.88;5015423;28;97921;-32
2022/10/14 05:55:14;;;;;;;20.25;6.28;;;;;;;13.05;97.92;101284.97;5015840;28;97804;-31
2022/10/14 05:57:42;;;;;;;19.85;7.45;;;;;;;13.04;98.25;101276.88;5015584;28;96561;-30
2022/10/14 06:00:08;;;;;;;28.63;8.77;;;;;;;13.07;98.23;101283.03;5014047;28;96800;-30
2022/10/14 06:02:33;;;;;;;22.38;8.32;;;;;;;13.12;98.34;101274.56;5014646;28;97862;-30
2022/10/14 06:04:58;;;;;;;19.00;7.30;;;;;;;13.13;97.88;101285.34;5014553;28;108565;-31
2022/10/14 06:07:24;;;;;;;18.92;6.38;;;;;;;13.11;98.34;101273.69;5014677;28;106989;-30
2022/10/14 06:09:49;;;;;;;25.15;7.57;;;;;;;13.13;98.95;101281.72;5014880;28;104553;-30
2022/10/14 06:12:15;;;;;;;26.27;9.52;;;;;;;13.12;98.72;101277.28;5014728;28;99177;-31
2022/10/14 06:14:40;;;;;;;36.80;9.23;;;;;;;13.15;98.29;101275.22;5013833;28;120141;-32
2022/10/14 06:17:05;;;;;;;21.48;7.45;;;;;;;13.16;98.78;101281.56;5015039;28;96683;-30
2022/10/14 06:19:31;;;;;;;22.50;8.48;;;;;;;13.15;98.71;101271.63;5015342;28;96939;-30
2022/10/14 06:21:57;;;;;;;22.38;7.70;;;;;;;13.14;99.37;101270.75;5013426;28;100747;-30
2022/10/14 06:24:22;;;;;;;26.95;8.55;;;;;;;13.18;98.95;101272.31;5014723;28;98858;-31
2022/10/14 06:26:47;;;;;;;22.80;9.50;;;;;;;13.18;98.67;101266.88;5014365;28;96488;-30
2022/10/14 06:29:13;;;;;;;24.38;7.68;;;;;;;13.20;98.94;101265.91;5014881;28;96901;-30
2022/10/14 06:31:39;;;;;;;21.90;6.25;;;;;;;13.21;98.59;101270.38;5013193;28;101526;-30
2022/10/14 06:34:05;;;;;;;25.48;7.82;;;;;;;13.25;98.70;101269.19;5014911;28;97789;-31
2022/10/14 06:36:31;;;;;;;21.58;7.93;;;;;;;13.24;99.71;101271.03;5013378;28;96564;-30
2022/10/14 06:38:56;;;;;;;18.80;7.45;;;;;;;13.22;99.94;101264.81;5015410;28;96707;-30
2022/10/14 06:41:22;;;;;;;25.52;7.55;;;;;;;13.25;99.71;101264.63;5014446;28;98540;-31
2022/10/14 06:43:48;;;;;;;23.88;7.40;;;;;;;13.27;100.00;101250.91;5014573;28;97704;-31
2022/10/14 06:46:13;;;;;;;25.45;7.07;;;;;;;13.27;100.00;101250.91;5014109;28;96710;-31
2022/10/14 06:48:38;;;;;;;22.73;7.68;;;;;;;13.30;99.73;101251.63;5014695;28;96754;-31
2022/10/14 06:51:04;;;;;;;21.95;7.38;;;;;;;13.29;99.86;101249.88;5013842;28;98858;-32
2022/10/14 06:53:29;;;;;;;25.35;7.93;;;;;;;13.33;99.40;101253.28;5014241;28;98847;-31
2022/10/14 06:56:12;;;;;;;25.42;7.97;;;;;;;13.33;99.86;101254.13;5014800;28;96638;-30
2022/10/14 06:58:38;;;;;;;22.05;7.30;;;;;;;13.36;99.65;101255.78;5013202;28;96690;-30
2022/10/14 07:01:04;;;;;;;19.60;6.93;;;;;;;13.37;99.55;101250.25;5014946;28;99268;-31
2022/10/14 07:03:30;;;;;;;23.70;7.38;;;;;;;13.37;99.35;101247.53;5016434;28;101219;-31
2022/10/14 07:05:55;;;;;;;24.52;7.40;;;;;;;13.39;99.27;101250.13;5017930;28;96664;-30
2022/10/14 07:08:21;;;;;;;25.98;7.28;;;;;;;13.40;99.68;101249.16;5018914;28;96960;-31
2022/10/14 07:10:47;;;;;;;19.38;7.07;;;;;;;13.41;99.62;101245.44;5017523;28;109351;-31
2022/10/14 07:13:13;;;;;;;31.73;8.85;;;;;;;13.41;99.65;101242.72;5016145;28;101196;-30
2022/10/14 07:15:38;;;;;;;34.03;9.93;;;;;;;13.42;100.00;101239.06;5015974;28;96998;-30
2022/10/14 07:18:05;;;;;;;26.58;8.77;;;;;;;13.43;100.00;101240.78;5017913;28;96513;-30
2022/10/14 07:20:30;;;;;;;25.48;8.93;;;;;;;13.44;100.00;101239.78;5016114;28;101170;-32
2022/10/14 07:22:55;;;;;;;35.40;10.23;;;;;;;13.46;100.00;101237.84;5017548;28;98655;-31
2022/10/14 07:25:21;;;;;;;30.65;9.52;;;;;;;13.47;100.00;101242.31;5017918;28;96713;-31
2022/10/14 07:27:46;;;;;;;38.67;11.13;;;;;;;13.49;100.00;101240.38;5017579;28;96833;-30
2022/10/14 07:30:12;;;;;;;33.72;10.23;;;;;;;13.51;100.00;101249.28;5017299;28;109242;-32
2022/10/14 07:32:38;;;;;;;34.17;9.48;;;;;;;13.52;100.00;101244.75;5016509;28;100819;-31
2022/10/14 07:35:04;;;;;;;33.38;10.35;;;;;;;13.54;100.00;101245.50;5017801;28;96622;-30
2022/10/14 07:37:30;;;;;;;37.10;10.82;;;;;;;13.52;100.00;101240.16;5016203;28;96880;-30
2022/10/14 07:39:55;;;;;;;41.78;11.48;;;;;;;13.53;100.00;101241.91;5016825;28;97677;-30
2022/10/14 07:42:20;;;;;;;41.92;13.50;;;;;;;13.56;100.00;101246.25;5016660;28;113713;-30
2022/10/14 07:44:45;;;;;;;47.30;11.10;;;;;;;13.56;100.00;101252.59;5016772;28;110652;-30
2022/10/14 07:47:11;;;;;;;48.53;11.75;;;;;;;13.59;100.00;101248.78;5016685;28;96969;-32
2022/10/14 07:49:38;;;;;;;50.00;13.23;;;;;;;13.60;100.00;101242.34;5017324;28;97977;-30
2022/10/14 07:52:03;;;;;;;43.85;11.85;;;;;;;13.59;100.00;101237.91;5015602;28;101619;-30
2022/10/14 07:54:29;;;;;;;37.40;10.52;;;;;;;13.60;100.00;101232.34;5017582;28;96541;-31
2022/10/14 07:56:56;;;;;;;47.17;11.23;;;;;;;13.63;100.00;101238.56;5016005;28;96826;-30
2022/10/14 07:59:22;;;;;;;39.63;12.02;;;;;;;13.63;100.00;101247.59;5015654;28;99333;-30
2022/10/14 08:01:49;;;;;;;40.25;12.00;;;;;;;13.65;100.00;101247.50;5016732;28;99203;-30
2022/10/14 08:04:16;;;;;;;36.08;10.93;;;;;;;13.67;100.00;101248.25;5015348;28;96824;-30
2022/10/14 08:06:41;;;;;;;42.05;11.32;;;;;;;13.67;100.00;101243.69;5015755;28;96889;-30
2022/10/14 08:09:08;;;;;;;30.95;9.80;;;;;;;13.68;100.00;101234.56;5016648;28;99283;-30
2022/10/14 08:11:34;;;;;;;38.33;11.63;;;;;;;13.68;100.00;101239.09;5015272;28;100849;-30
2022/10/14 08:14:00;;;;;;;43.00;11.57;;;;;;;13.70;100.00;101235.31;5015415;28;96865;-30
2022/10/14 08:16:28;;;;;;;43.80;11.85;;;;;;;13.73;100.00;101239.66;5017254;28;96807;-31
2022/10/14 08:19:00;;;;;;;47.70;13.20;;;;;;;13.70;100.00;101238.03;5015317;28;101097;-30
2022/10/14 08:21:26;;;;;;;46.60;12.32;;;;;;;13.71;100.00;101230.75;5015760;28;100934;-30
2022/10/14 08:23:52;;;;;;;39.53;12.10;;;;;;;13.75;100.00;101237.72;5015540;28;96533;-31
2022/10/14 08:26:38;;;;;;;38.63;12.20;;;;;;;13.74;100.00;101227.81;5016869;28;96945;-30
2022/10/14 08:29:06;;;;;;;47.60;11.40;;;;;;;13.76;100.00;101236.75;5014617;28;101384;-29
2022/10/14 08:31:32;;;;;;;42.50;12.93;;;;;;;13.75;100.00;101226.81;5016619;28;97444;-31
2022/10/14 08:33:58;;;;;;;47.28;11.68;;;;;;;13.78;100.00;101234.78;5015373;28;96775;-31
2022/10/14 08:36:24;;;;;;;39.95;11.20;;;;;;;13.78;100.00;101245.69;5016946;28;96824;-30
2022/10/14 08:38:51;;;;;;;42.72;12.05;;;;;;;13.77;100.00;101230.31;5014945;28;100990;-30
2022/10/14 08:41:43;;;;;;;38.20;11.18;;;;;;;13.83;100.00;101237.22;5014907;28;100679;-31
2022/10/14 08:44:25;;;;;;;34.60;9.73;;;;;;;13.84;100.00;101237.06;5015227;28;97168;-30
2022/10/14 08:47:07;;;;;;;41.97;10.88;;;;;;;13.83;100.00;101226.31;5014789;28;96893;-32
2022/10/14 08:50:10;;;;;;;37.17;9.80;;;;;;;13.86;100.00;101237.84;5014923;28;101383;-31
2022/10/14 08:52:49;;;;;;;47.38;12.13;;;;;;;13.89;100.00;101239.47;5016425;28;97419;-31
2022/10/14 08:55:38;;;;;;;30.40;9.32;;;;;;;13.88;100.00;101232.31;5013279;28;118539;-31
2022/10/14 08:58:17;;;;;;;40.83;11.15;;;;;;;13.89;100.00;101224.00;5015039;28;96922;-30
2022/10/14 09:00:46;;;;;;;41.65;11.82;;;;;;;13.92;100.00;101222.94;5014652;28;100910;-30
2022/10/14 09:03:31;;;;;;;46.83;12.20;;;;;;;13.92;100.00;101220.19;5014632;28;100630;-30
2022/10/14 09:05:59;;;;;;;34.15;10.35;;;;;;;13.92;100.00;101217.47;5016220;28;96537;-30
2022/10/14 09:08:41;;;;;;;37.80;10.68;;;;;;;13.93;100.00;101228.28;5014804;28;96910;-32
2022/10/14 09:11:11;;;;;;;26.10;9.10;;;;;;;13.92;100.00;101215.66;5014642;28;100873;-31
2022/10/14 09:13:39;;;;;;;37.95;10.15;;;;;;;13.92;100.00;101209.31;5014965;28;101068;-29
2022/10/14 09:16:19;;;;;;;31.60;9.45;;;;;;;13.94;100.00;101212.81;5015931;28;96783;-30
2022/10/14 09:18:48;;;;;;;30.33;11.13;;;;;;;13.93;100.00;101200.19;5016163;28;96691;-30
2022/10/14 09:21:35;;;;;;;30.30;8.45;;;;;;;13.97;100.00;101207.16;5014983;28;103073;-30
2022/10/14 09:24:03;;;;;;;25.80;9.50;;;;;;;13.96;100.00;101210.84;5013708;28;100825;-30
2022/10/14 09:26:40;;;;;;;32.15;10.27;;;;;;;13.98;100.00;101201.59;5013897;28;96813;-31
2022/10/14 09:29:22;;;;;;;26.50;8.45;;;;;;;13.97;100.00;101199.84;5014712;28;96878;-31
2022/10/14 09:31:47;;;;;;;27.70;8.95;;;;;;;14.03;100.00;101206.72;5014201;28;100924;-30
2022/10/14 09:34:28;;;;;;;17.50;6.72;;;;;;;14.07;100.00;101204.66;5015651;28;97784;-30
2022/10/14 09:36:53;;;;;;;20.98;7.63;;;;;;;14.12;100.00;101206.06;5014263;28;96803;-30
2022/10/14 09:39:18;;;;;;;22.42;7.85;;;;;;;14.14;100.00;101201.38;5016189;28;96844;-31
2022/10/14 09:41:48;;;;;;;21.02;7.32;;;;;;;14.20;100.00;101208.25;5015382;28;99304;-30
2022/10/14 09:44:18;;;;;;;31.48;8.88;;;;;;;14.28;100.00;101215.88;5013884;28;98969;-30
2022/10/14 09:47:04;;;;;;;23.75;7.25;;;;;;;14.28;100.00;101207.69;5013409;28;96857;-30
2022/10/14 09:49:45;;;;;;;19.63;7.22;;;;;;;14.26;100.00;101193.31;5013760;28;96935;-30
2022/10/14 09:52:25;;;;;;;17.90;7.13;;;;;;;14.29;100.00;101201.28;5013878;28;100734;-30
2022/10/14 09:54:57;;;;;;;21.52;7.63;;;;;;;14.29;100.00;101204.00;5013796;28;101160;-30
2022/10/14 09:57:24;;;;;;;14.68;6.55;;;;;;;14.32;100.00;101201.03;5014042;28;96632;-30
2022/10/14 09:59:57;;;;;;;19.20;7.82;;;;;;;14.32;100.00;101199.19;5015417;28;96881;-31
2022/10/14 10:02:35;;;;;;;14.10;5.80;;;;;;;14.32;100.00;101195.59;5013627;28;100937;-30
2022/10/14 10:05:12;;;;;;;22.13;6.75;;;;;;;14.27;100.00;101195.91;5015598;28;97874;-30
2022/10/14 10:07:37;;;;;;;16.35;6.20;;;;;;;14.26;100.00;101196.91;5015497;28;96653;-31
2022/10/14 10:10:17;;;;;;;18.27;7.05;;;;;;;14.28;100.00;101194.97;5015567;28;96811;-30
2022/10/14 10:12:45;;;;;;;18.05;6.28;;;;;;;14.27;100.00;101197.78;5014415;28;99556;-30
2022/10/14 10:15:18;;;;;;;16.25;6.07;;;;;;;14.27;100.00;101203.22;5014540;28;97902;-31
2022/10/14 10:17:44;;;;;;;15.10;5.53;;;;;;;14.24;100.00;101198.88;5013714;28;97849;-30
2022/10/14 10:20:30;;;;;;;18.95;5.55;;;;;;;14.28;100.00;101200.41;5015065;28;96869;-32
2022/10/14 10:22:57;;;;;;;13.27;5.28;;;;;;;14.27;100.00;101198.66;5014892;28;98075;-30
2022/10/14 10:25:27;;;;;;;13.45;5.53;;;;;;;14.28;100.00;101194.97;5014751;28;98787;-31
2022/10/14 10:27:55;;;;;;;15.25;6.13;;;;;;;14.29;100.00;101198.53;5013680;28;96630;-30
2022/10/14 10:30:21;;;;;;;13.13;5.35;;;;;;;14.28;100.00;101200.41;5014091;28;96860;-31
2022/10/14 10:33:12;;;;;;;13.07;6.15;;;;;;;14.30;100.00;101203.91;5014899;28;98157;-30
2022/10/14 10:35:53;;;;;;;13.32;5.00;;;;;;;14.32;100.00;101192.88;5011551;28;101004;-30
2022/10/14 10:38:51;;;;;;;11.20;4.93;;;;;;;14.32;100.00;101191.00;5012951;28;96684;-30
2022/10/14 10:41:52;;;;;;;11.52;4.78;;;;;;;14.33;100.00;101184.59;4980540;28;96881;-30
2022/10/14 10:44:21;;;;;;;7.47;4.00;;;;;;;14.35;100.00;101189.91;5014449;28;97701;-30
2022/10/14 10:46:59;;;;;;;11.10;4.40;;;;;;;14.34;100.00;101180.88;5014041;28;97870;-31
2022/10/14 10:49:40;;;;;;;11.65;4.70;;;;;;;14.34;100.00;101175.41;5014878;28;96557;-31
2022/10/14 10:52:29;;;;;;;9.73;4.18;;;;;;;14.33;100.00;101172.81;5014643;28;96800;-31
2022/10/14 10:54:57;;;;;;;11.20;4.38;;;;;;;14.36;100.00;101178.91;5012970;28;98889;-30
2022/10/14 10:58:00;;;;;;;14.23;4.78;;;;;;;14.36;100.00;101175.31;5014609;28;97845;-30
2022/10/14 11:00:31;;;;;;;9.70;3.70;;;;;;;14.36;100.00;101180.78;5014738;28;96584;-31
2022/10/14 11:03:08;;;;;;;11.38;4.22;;;;;;;14.40;100.00;101171.41;5013666;28;96846;-30
2022/10/14 11:06:03;;;;;;;10.80;4.40;;;;;;;14.42;100.00;101174.91;5013949;28;97964;-30
2022/10/14 11:14:47;;;;;;;13.52;4.68;;;;;;;14.48;100.00;101152.63;5014732;28;96546;-32
2022/10/14 11:17:25;;;;;;;13.13;5.05;;;;;;;14.51;100.00;101140.63;5014319;28;97544;-30
2022/10/14 11:20:08;;;;;;;10.27;4.40;;;;;;;14.52;100.00;101136.94;5012773;28;100832;-30
2022/10/14 11:22:49;;;;;;;20.55;4.72;;;;;;;14.62;100.00;101138.00;5013036;28;96679;-31
2022/10/14 11:25:37;;;;;;;12.57;4.25;;;;;;;14.69;100.00;101147.47;5013303;28;96809;-30
2022/10/14 11:28:10;;;;;;;9.73;4.70;;;;;;;14.75;100.00;101140.69;5012441;28;98991;-30